createdAt,value
2018-07-11T00:02:14.998Z,3.00
2018-07-11T00:04:43.151Z,2.83
2018-07-11T00:07:11.320Z,3.30
2018-07-11T00:09:39.467Z,3.00
2018-07-11T00:12:07.645Z,3.00
2018-07-11T00:14:35.791Z,3.00
2018-07-11T00:17:05.980Z,2.87
2018-07-11T00:19:35.218Z,2.90
2018-07-11T00:22:03.376Z,3.30
2018-07-11T00:24:31.547Z,3.20
2018-07-11T00:26:59.708Z,2.80
2018-07-11T00:29:27.884Z,2.70
2018-07-11T00:31:55.816Z,2.50
2018-07-11T00:34:23.992Z,3.33
2018-07-11T00:36:52.163Z,2.80
2018-07-11T00:39:20.343Z,3.30
2018-07-11T00:41:48.506Z,2.60
2018-07-11T00:44:16.697Z,2.80
2018-07-11T00:46:44.859Z,3.27
2018-07-11T00:49:13.028Z,2.90
2018-07-11T00:51:41.199Z,2.80
2018-07-11T00:54:09.372Z,3.10
2018-07-11T00:56:37.566Z,3.10
2018-07-11T00:59:10.782Z,3.50
2018-07-11T01:01:40.976Z,3.07
2018-07-11T01:04:09.150Z,3.40
2018-07-11T01:06:37.328Z,3.17
2018-07-11T01:09:05.509Z,3.23
2018-07-11T01:11:36.158Z,2.90
2018-07-11T01:14:04.373Z,2.80
2018-07-11T01:16:32.864Z,2.90
2018-07-11T01:19:03.821Z,2.83
2018-07-11T01:21:32.647Z,3.10
2018-07-11T01:24:00.851Z,2.67
2018-07-11T01:26:30.217Z,2.83
2018-07-11T01:28:58.404Z,3.10
2018-07-11T01:31:26.687Z,3.30
2018-07-11T01:33:55.468Z,3.40
2018-07-11T01:36:23.926Z,2.83
2018-07-11T01:38:52.112Z,3.47
2018-07-11T01:41:20.262Z,3.00
2018-07-11T01:43:48.451Z,3.20
2018-07-11T01:46:16.629Z,3.00
2018-07-11T01:48:45.331Z,3.00
2018-07-11T01:51:13.524Z,3.40
2018-07-11T01:53:41.687Z,2.97
2018-07-11T01:56:09.857Z,2.90
2018-07-11T01:58:38.484Z,2.90
2018-07-11T02:01:06.749Z,3.10
2018-07-11T02:03:34.930Z,2.97
2018-07-11T02:06:03.096Z,3.10
2018-07-11T02:08:31.276Z,3.13
2018-07-11T02:10:59.784Z,3.00
2018-07-11T02:13:28.295Z,3.13
2018-07-11T02:15:57.110Z,3.70
2018-07-11T02:18:27.216Z,3.40
2018-07-11T02:20:55.892Z,3.37
2018-07-11T02:23:25.267Z,2.97
2018-07-11T02:25:53.424Z,3.20
2018-07-11T02:28:21.622Z,2.83
2018-07-11T02:30:49.776Z,3.27
2018-07-11T02:33:17.987Z,2.83
2018-07-11T02:35:46.117Z,3.00
2018-07-11T02:38:14.282Z,3.23
2018-07-11T02:40:42.449Z,3.00
2018-07-11T02:43:10.616Z,3.00
2018-07-11T02:45:38.779Z,3.03
2018-07-11T02:48:06.939Z,2.90
2018-07-11T02:50:34.888Z,3.00
2018-07-11T02:53:03.048Z,3.00
2018-07-11T02:55:31.252Z,2.63
2018-07-11T02:57:59.418Z,2.90
2018-07-11T03:00:27.615Z,3.70
2018-07-11T03:02:55.801Z,3.57
2018-07-11T03:05:26.445Z,3.33
2018-07-11T03:07:54.635Z,4.20
2018-07-11T03:10:22.833Z,3.40
2018-07-11T03:12:51.012Z,3.70
2018-07-11T03:15:19.204Z,3.10
2018-07-11T03:17:47.388Z,3.33
2018-07-11T03:20:15.328Z,2.93
2018-07-11T03:22:43.533Z,3.30
2018-07-11T03:25:11.716Z,3.07
2018-07-11T03:27:39.915Z,3.20
2018-07-11T03:30:08.122Z,3.40
2018-07-11T03:32:36.375Z,3.40
2018-07-11T03:35:04.514Z,3.60
2018-07-11T03:37:32.693Z,3.50
2018-07-11T03:40:00.884Z,3.57
2018-07-11T03:42:29.060Z,3.40
2018-07-11T03:44:57.266Z,3.30
2018-07-11T03:47:25.460Z,3.20
2018-07-11T03:49:53.667Z,3.30
2018-07-11T03:52:21.836Z,3.23
2018-07-11T03:54:50.037Z,3.70
2018-07-11T03:57:18.208Z,3.87
2018-07-11T03:59:46.380Z,3.70
2018-07-11T04:02:14.544Z,3.50
2018-07-11T04:04:42.733Z,3.60
2018-07-11T04:07:10.894Z,3.40
2018-07-11T04:09:39.048Z,3.23
2018-07-11T04:12:07.221Z,3.90
2018-07-11T04:14:35.404Z,3.50
2018-07-11T04:17:03.580Z,3.50
2018-07-11T04:19:31.772Z,3.30
2018-07-11T04:21:59.944Z,3.83
2018-07-11T04:24:28.109Z,3.47
2018-07-11T04:26:56.289Z,3.53
2018-07-11T04:29:24.460Z,3.60
2018-07-11T04:31:52.642Z,4.00
2018-07-11T04:34:20.800Z,3.77
2018-07-11T04:36:48.975Z,3.20
2018-07-11T04:39:17.145Z,3.87
2018-07-11T04:41:45.314Z,3.17
2018-07-11T04:44:13.486Z,3.80
2018-07-11T04:46:41.685Z,3.67
2018-07-11T04:49:09.863Z,3.90
2018-07-11T04:51:38.057Z,4.20
2018-07-11T04:54:06.292Z,3.90
2018-07-11T04:56:34.528Z,4.00
2018-07-11T04:59:02.790Z,3.53
2018-07-11T05:01:30.983Z,4.00
2018-07-11T05:03:59.194Z,3.47
2018-07-11T05:06:27.375Z,3.40
2018-07-11T05:08:55.581Z,4.00
2018-07-11T05:11:23.788Z,3.60
2018-07-11T05:13:51.976Z,3.83
2018-07-11T05:16:20.276Z,3.87
2018-07-11T05:18:48.403Z,4.10
2018-07-11T05:21:16.623Z,4.17
2018-07-11T05:23:51.371Z,3.90
2018-07-11T05:26:19.543Z,4.00
2018-07-11T05:28:47.743Z,3.73
2018-07-11T05:31:16.000Z,4.17
2018-07-11T05:33:44.606Z,3.60
2018-07-11T05:36:12.810Z,4.17
2018-07-11T05:38:41.009Z,3.80
2018-07-11T05:41:09.204Z,4.00
2018-07-11T05:43:37.409Z,3.93
2018-07-11T05:46:06.321Z,3.70
2018-07-11T05:48:34.553Z,4.27
2018-07-11T05:51:02.879Z,3.80
2018-07-11T05:53:31.713Z,4.03
2018-07-11T05:55:59.933Z,4.37
2018-07-11T05:58:28.136Z,4.17
2018-07-11T06:00:56.336Z,4.30
2018-07-11T06:03:24.604Z,4.67
2018-07-11T06:05:52.795Z,4.50
2018-07-11T06:08:21.001Z,4.77
2018-07-11T06:10:49.191Z,4.70
2018-07-11T06:13:17.420Z,4.30
2018-07-11T06:15:45.621Z,4.43
2018-07-11T06:18:13.832Z,5.00
2018-07-11T06:20:42.036Z,4.50
2018-07-11T06:23:10.391Z,5.10
2018-07-11T06:25:38.689Z,4.90
2018-07-11T06:28:06.980Z,4.17
2018-07-11T06:30:35.118Z,5.10
2018-07-11T06:33:03.321Z,4.70
2018-07-11T06:35:31.505Z,5.20
2018-07-11T06:37:59.743Z,4.87
2018-07-11T06:40:27.950Z,4.63
2018-07-11T06:42:56.152Z,4.57
2018-07-11T06:45:24.367Z,4.90
2018-07-11T06:47:52.579Z,3.63
2018-07-11T06:50:20.765Z,4.07
2018-07-11T06:52:48.967Z,3.40
2018-07-11T06:55:17.166Z,3.93
2018-07-11T06:57:45.335Z,4.10
2018-07-11T07:00:13.544Z,4.23
2018-07-11T07:02:41.713Z,3.20
2018-07-11T07:05:09.905Z,3.40
2018-07-11T07:07:38.097Z,4.50
2018-07-11T07:10:06.304Z,4.03
2018-07-11T07:12:34.476Z,4.10
2018-07-11T07:15:02.680Z,4.43
2018-07-11T07:17:30.851Z,4.13
2018-07-11T07:19:59.055Z,3.87
2018-07-11T07:22:27.281Z,4.27
2018-07-11T07:24:55.418Z,4.03
2018-07-11T07:27:23.620Z,4.17
2018-07-11T07:29:51.835Z,4.20
2018-07-11T07:32:20.026Z,4.03
2018-07-11T07:34:48.263Z,5.00
2018-07-11T07:37:16.416Z,4.80
2018-07-11T07:39:44.368Z,4.70
2018-07-11T07:42:12.550Z,4.60
2018-07-11T07:44:40.749Z,4.83
2018-07-11T07:47:13.186Z,4.63
2018-07-11T07:49:41.394Z,4.70
2018-07-11T07:52:09.580Z,4.30
2018-07-11T07:54:37.781Z,4.63
2018-07-11T07:57:06.017Z,5.40
2018-07-11T07:59:34.219Z,5.10
2018-07-11T08:02:02.554Z,4.97
2018-07-11T08:04:30.754Z,5.13
2018-07-11T08:06:59.013Z,5.60
2018-07-11T08:09:27.186Z,5.60
2018-07-11T08:11:55.387Z,5.70
2018-07-11T08:14:23.610Z,5.90
2018-07-11T08:16:51.804Z,5.40
2018-07-11T08:19:19.991Z,5.17
2018-07-11T08:21:48.216Z,5.60
2018-07-11T08:24:27.828Z,4.90
2018-07-11T08:27:07.428Z,5.17
2018-07-11T08:30:45.598Z,4.37
2018-07-11T08:33:24.016Z,4.50
2018-07-11T08:38:08.620Z,5.07
2018-07-11T08:40:51.886Z,5.00
2018-07-11T08:43:29.084Z,4.90
2018-07-11T08:48:11.048Z,5.20
2018-07-11T08:50:49.613Z,5.17
2018-07-11T08:54:38.712Z,5.60
2018-07-11T08:57:23.572Z,5.40
2018-07-11T09:00:03.237Z,5.23
2018-07-11T09:04:49.574Z,5.30
2018-07-11T09:07:58.254Z,5.50
2018-07-11T09:11:33.481Z,5.00
2018-07-11T09:14:16.891Z,5.60
2018-07-11T09:16:56.301Z,4.43
2018-07-11T09:19:34.433Z,5.33
2018-07-11T09:22:15.842Z,4.87
2018-07-11T09:24:45.120Z,4.97
2018-07-11T09:27:13.607Z,5.73
2018-07-11T09:29:42.705Z,4.60
2018-07-11T09:32:11.596Z,4.77
2018-07-11T09:34:39.852Z,5.17
2018-07-11T09:37:08.133Z,5.10
2018-07-11T09:39:36.335Z,5.30
2018-07-11T09:42:04.596Z,4.70
2018-07-11T09:44:32.928Z,4.87
2018-07-11T09:47:05.350Z,4.83
2018-07-11T09:49:34.185Z,4.70
2018-07-11T09:52:02.367Z,5.00
2018-07-11T09:54:30.563Z,5.00
2018-07-11T09:56:58.773Z,5.20
2018-07-11T09:59:27.600Z,5.63
2018-07-11T10:01:55.781Z,5.40
2018-07-11T10:04:24.364Z,5.30
2018-07-11T10:06:52.630Z,5.50
2018-07-11T10:09:20.819Z,4.37
2018-07-11T10:11:49.015Z,5.30
2018-07-11T10:14:17.186Z,4.90
2018-07-11T10:16:45.362Z,4.90
2018-07-11T10:19:13.520Z,5.30
2018-07-11T10:21:41.821Z,5.10
2018-07-11T10:24:09.920Z,5.20
2018-07-11T10:26:38.093Z,5.70
2018-07-11T10:29:06.273Z,5.30
2018-07-11T10:31:34.469Z,5.10
2018-07-11T10:34:02.671Z,5.47
2018-07-11T10:36:30.881Z,4.80
2018-07-11T10:38:59.078Z,5.20
2018-07-11T10:41:27.261Z,5.37
2018-07-11T10:43:55.455Z,4.97
2018-07-11T10:46:23.623Z,5.43
2018-07-11T10:48:51.829Z,5.00
2018-07-11T10:51:20.008Z,4.70
2018-07-11T10:53:48.218Z,4.83
2018-07-11T10:56:16.430Z,5.37
2018-07-11T10:58:44.649Z,5.00
2018-07-11T11:01:12.909Z,4.67
2018-07-11T11:03:41.084Z,5.53
2018-07-11T11:06:09.277Z,4.40
2018-07-11T11:08:37.492Z,4.90
2018-07-11T11:11:05.678Z,5.50
2018-07-11T11:13:33.907Z,5.50
2018-07-11T11:16:02.199Z,5.80
2018-07-11T11:18:30.409Z,5.60
2018-07-11T11:20:58.615Z,4.97
2018-07-11T11:23:26.824Z,4.70
2018-07-11T11:25:55.023Z,4.80
2018-07-11T11:28:23.241Z,5.17
2018-07-11T11:30:51.427Z,5.23
2018-07-11T11:33:19.640Z,5.17
2018-07-11T11:35:47.878Z,5.13
2018-07-11T11:38:16.086Z,5.30
2018-07-11T11:40:44.299Z,5.30
2018-07-11T11:43:12.526Z,5.00
2018-07-11T11:45:40.740Z,4.80
2018-07-11T11:48:08.966Z,5.60
2018-07-11T11:50:37.206Z,5.13
2018-07-11T11:53:05.477Z,5.60
2018-07-11T11:55:33.684Z,4.67
2018-07-11T11:58:01.883Z,5.37
2018-07-11T12:00:30.070Z,5.10
2018-07-11T12:02:58.274Z,5.50
2018-07-11T12:05:26.545Z,5.10
2018-07-11T12:07:54.733Z,4.90
2018-07-11T12:10:22.930Z,4.50
2018-07-11T12:12:51.128Z,5.10
2018-07-11T12:15:19.306Z,4.90
2018-07-11T12:17:47.520Z,4.80
2018-07-11T12:20:15.703Z,5.23
2018-07-11T12:22:44.114Z,5.17
2018-07-11T12:25:12.317Z,4.93
2018-07-11T12:27:40.617Z,4.50
2018-07-11T12:30:08.832Z,6.40
2018-07-11T12:32:37.081Z,5.23
2018-07-11T12:35:05.280Z,4.83
2018-07-11T12:37:33.489Z,5.70
2018-07-11T12:40:01.724Z,4.67
2018-07-11T12:42:29.968Z,4.87
2018-07-11T12:44:58.156Z,4.60
2018-07-11T12:47:31.663Z,5.03
2018-07-11T12:49:59.868Z,4.80
2018-07-11T12:52:28.048Z,5.07
2018-07-11T12:54:56.005Z,5.10
2018-07-11T12:57:25.213Z,6.13
2018-07-11T12:59:53.438Z,4.97
2018-07-11T13:02:21.674Z,5.50
2018-07-11T13:04:50.669Z,4.90
2018-07-11T13:07:18.872Z,5.93
2018-07-11T13:09:47.211Z,4.93
2018-07-11T13:12:15.406Z,4.80
2018-07-11T13:14:43.622Z,4.80
2018-07-11T13:17:11.820Z,5.27
2018-07-11T13:19:40.041Z,5.27
2018-07-11T13:22:08.248Z,4.87
2018-07-11T13:24:36.468Z,5.43
2018-07-11T13:27:04.696Z,4.90
2018-07-11T13:29:32.920Z,5.80
2018-07-11T13:32:01.139Z,5.00
2018-07-11T13:34:29.329Z,4.93
2018-07-11T13:36:57.523Z,4.70
2018-07-11T13:39:25.716Z,5.53
2018-07-11T13:41:53.934Z,4.70
2018-07-11T13:44:22.136Z,6.70
2018-07-11T13:46:50.331Z,5.43
2018-07-11T13:49:18.501Z,4.97
2018-07-11T13:51:46.671Z,5.40
2018-07-11T13:54:14.842Z,5.80
2018-07-11T13:56:43.052Z,5.80
2018-07-11T13:59:11.234Z,6.10
2018-07-11T14:01:40.725Z,5.60
2018-07-11T14:04:12.881Z,6.00
2018-07-11T14:06:41.336Z,5.40
2018-07-11T14:09:09.598Z,6.20
2018-07-11T14:11:40.133Z,5.43
2018-07-11T14:14:08.338Z,5.33
2018-07-11T14:16:36.516Z,6.17
2018-07-11T14:19:04.675Z,6.10
2018-07-11T14:21:32.873Z,5.73
2018-07-11T14:24:01.092Z,6.47
2018-07-11T14:26:29.305Z,5.40
2018-07-11T14:28:57.683Z,5.63
2018-07-11T14:31:32.560Z,6.27
2018-07-11T14:34:01.817Z,6.17
2018-07-11T14:36:30.726Z,6.67
2018-07-11T14:38:59.085Z,5.80
2018-07-11T14:41:27.285Z,6.10
2018-07-11T14:43:56.357Z,5.60
2018-07-11T14:46:27.814Z,5.97
2018-07-11T14:48:56.115Z,5.60
2018-07-11T14:51:24.992Z,5.63
2018-07-11T14:53:54.379Z,5.50
2018-07-11T14:56:23.802Z,7.70
2018-07-11T14:58:53.958Z,5.90
2018-07-11T15:01:34.030Z,6.27
2018-07-11T15:04:02.978Z,6.07
2018-07-11T15:06:32.059Z,5.30
2018-07-11T15:09:04.521Z,5.57
2018-07-11T15:11:33.461Z,5.90
2018-07-11T15:14:02.710Z,6.13
2018-07-11T15:16:34.451Z,6.10
2018-07-11T15:19:23.262Z,5.10
2018-07-11T15:21:51.496Z,5.10
2018-07-11T15:24:20.803Z,5.70
2018-07-11T15:26:49.312Z,4.80
2018-07-11T15:29:17.818Z,5.73
2018-07-11T15:31:46.152Z,4.57
2018-07-11T15:34:14.405Z,5.73
2018-07-11T15:36:42.793Z,5.63
2018-07-11T15:39:11.089Z,6.07
2018-07-11T15:41:39.304Z,6.43
2018-07-11T15:44:07.523Z,5.57
2018-07-11T15:46:35.968Z,4.93
2018-07-11T15:49:04.592Z,5.80
2018-07-11T15:51:33.003Z,5.63
2018-07-11T15:54:01.235Z,5.13
2018-07-11T15:56:29.469Z,5.10
2018-07-11T15:59:07.685Z,5.40
2018-07-11T16:02:09.099Z,4.93
2018-07-11T16:04:40.222Z,4.70
2018-07-11T16:07:09.335Z,4.60
2018-07-11T16:09:59.738Z,5.60
2018-07-11T16:12:27.944Z,5.40
2018-07-11T16:14:56.894Z,5.23
2018-07-11T16:17:25.118Z,5.20
2018-07-11T16:19:53.362Z,5.53
2018-07-11T16:22:21.851Z,5.10
2018-07-11T16:24:51.478Z,5.10
2018-07-11T16:27:20.446Z,5.27
2018-07-11T16:29:48.693Z,5.20
2018-07-11T16:32:17.098Z,5.40
2018-07-11T16:34:46.112Z,5.50
2018-07-11T16:37:15.058Z,5.57
2018-07-11T16:39:43.607Z,5.70
2018-07-11T16:42:11.910Z,5.43
2018-07-11T16:44:40.130Z,5.30
2018-07-11T16:47:08.439Z,4.57
2018-07-11T16:49:40.017Z,4.40
2018-07-11T16:52:08.277Z,4.87
2018-07-11T16:54:36.530Z,4.40
2018-07-11T16:57:05.517Z,5.60
2018-07-11T16:59:43.271Z,4.63
2018-07-11T17:02:11.674Z,5.60
2018-07-11T17:04:40.235Z,5.10
2018-07-11T17:07:11.357Z,5.13
2018-07-11T17:09:44.362Z,4.43
2018-07-11T17:12:13.878Z,4.60
2018-07-11T17:14:44.837Z,4.37
2018-07-11T17:17:13.019Z,4.53
2018-07-11T17:19:54.223Z,4.00
2018-07-11T17:22:26.887Z,4.90
2018-07-11T17:24:55.062Z,4.40
2018-07-11T17:27:23.783Z,4.80
2018-07-11T17:29:52.328Z,4.90
2018-07-11T17:32:20.806Z,4.70
2018-07-11T17:34:48.982Z,4.17
2018-07-11T17:37:19.781Z,4.40
2018-07-11T17:39:57.583Z,4.23
2018-07-11T17:42:27.076Z,4.60
2018-07-11T17:45:03.965Z,5.17
2018-07-11T17:47:34.874Z,5.23
2018-07-11T17:50:04.684Z,5.63
2018-07-11T17:52:42.121Z,5.10
2018-07-11T17:55:16.536Z,5.60
2018-07-11T17:57:54.944Z,4.43
2018-07-11T18:00:38.582Z,5.47
2018-07-11T18:03:22.539Z,4.40
2018-07-11T18:05:56.178Z,5.00
2018-07-11T18:08:30.061Z,6.00
2018-07-11T18:10:58.533Z,4.90
2018-07-11T18:13:33.572Z,7.87
2018-07-11T18:17:11.541Z,7.60
2018-07-11T18:19:55.272Z,4.97
2018-07-11T18:22:33.423Z,4.87
2018-07-11T18:25:09.808Z,4.80
2018-07-11T18:27:49.627Z,5.20
2018-07-11T18:32:34.946Z,4.80
2018-07-11T18:36:19.384Z,5.00
2018-07-11T18:38:55.455Z,5.07
2018-07-11T18:42:38.282Z,5.10
2018-07-11T18:45:14.912Z,4.77
2018-07-11T18:47:57.571Z,4.30
2018-07-11T18:51:40.083Z,4.33
2018-07-11T18:54:10.934Z,4.07
2018-07-11T18:56:49.464Z,4.63
2018-07-11T18:59:29.136Z,4.30
2018-07-11T19:04:08.127Z,4.30
2018-07-11T19:06:42.119Z,5.17
2018-07-11T19:09:12.394Z,5.30
2018-07-11T19:11:54.820Z,4.87
2018-07-11T19:14:35.777Z,4.73
2018-07-11T19:17:09.104Z,4.83
2018-07-11T19:22:01.179Z,4.87
2018-07-11T19:24:56.762Z,5.33
2018-07-11T19:27:33.060Z,4.73
2018-07-11T19:30:12.892Z,5.00
2018-07-11T19:33:12.225Z,5.00
2018-07-11T19:35:49.432Z,5.20
2018-07-11T19:38:32.547Z,4.80
2018-07-11T19:41:20.776Z,4.83
2018-07-11T19:46:03.466Z,5.40
2018-07-11T19:50:51.645Z,5.77
2018-07-11T19:55:32.943Z,5.10
2018-07-11T19:58:01.160Z,5.70
2018-07-11T20:00:29.351Z,6.03
2018-07-11T20:02:57.574Z,5.50
2018-07-11T20:05:25.763Z,6.30
2018-07-11T20:07:53.962Z,5.10
2018-07-11T20:10:22.156Z,5.27
2018-07-11T20:12:50.431Z,6.20
2018-07-11T20:15:19.088Z,6.33
2018-07-11T20:17:47.255Z,5.97
2018-07-11T20:20:15.479Z,5.80
2018-07-11T20:22:43.676Z,6.57
2018-07-11T20:25:11.856Z,5.23
2018-07-11T20:27:40.048Z,5.43
2018-07-11T20:30:09.223Z,5.20
2018-07-11T20:32:37.395Z,5.47
2018-07-11T20:35:05.580Z,5.70
2018-07-11T20:37:33.801Z,5.17
2018-07-11T20:40:01.990Z,5.80
2018-07-11T20:42:30.193Z,5.37
2018-07-11T20:47:33.271Z,5.10
2018-07-11T20:50:01.469Z,5.20
2018-07-11T20:52:29.655Z,6.03
2018-07-11T20:54:57.825Z,5.30
2018-07-11T20:57:26.092Z,5.37
2018-07-11T21:00:05.479Z,6.23
2018-07-11T21:02:44.915Z,5.47
2018-07-11T21:05:24.486Z,5.00
2018-07-11T21:08:08.372Z,5.07
2018-07-11T21:10:47.719Z,5.60
2018-07-11T21:13:27.163Z,5.90
2018-07-11T21:16:39.380Z,5.53
2018-07-11T21:19:09.680Z,6.03
2018-07-11T21:21:38.720Z,5.63
2018-07-11T21:24:07.818Z,5.93
2018-07-11T21:26:36.378Z,5.73
2018-07-11T21:29:04.635Z,5.53
2018-07-11T21:31:32.830Z,5.60
2018-07-11T21:34:01.031Z,4.60
2018-07-11T21:36:29.204Z,5.33
2018-07-11T21:38:57.386Z,6.20
2018-07-11T21:41:25.561Z,5.23
2018-07-11T21:43:53.790Z,5.20
2018-07-11T21:46:22.041Z,5.43
2018-07-11T21:48:52.071Z,5.20
2018-07-11T21:51:20.243Z,6.10
2018-07-11T21:53:48.483Z,5.93
2018-07-11T21:56:16.636Z,6.37
2018-07-11T21:58:44.789Z,5.43
2018-07-11T22:01:13.175Z,5.10
2018-07-11T22:03:41.924Z,5.23
2018-07-11T22:06:10.084Z,4.47
2018-07-11T22:08:38.248Z,4.80
2018-07-11T22:11:06.404Z,4.90
2018-07-11T22:13:34.556Z,5.00
2018-07-11T22:16:02.704Z,5.57
2018-07-11T22:18:41.425Z,5.47
2018-07-11T22:21:09.696Z,5.80
2018-07-11T22:23:36.953Z,6.30
2018-07-11T22:26:04.178Z,6.00
2018-07-11T22:28:31.364Z,5.13
2018-07-11T22:30:58.571Z,5.20
2018-07-11T22:33:25.752Z,4.90
2018-07-11T22:35:52.945Z,5.43
2018-07-11T22:38:20.123Z,5.00
2018-07-11T22:40:47.344Z,5.27
2018-07-11T22:43:14.524Z,4.90
2018-07-11T22:45:41.727Z,4.80
2018-07-11T22:48:08.899Z,4.80
2018-07-11T22:50:36.120Z,4.80
2018-07-11T22:53:03.253Z,6.37
2018-07-11T22:55:30.443Z,4.80
2018-07-11T22:58:03.879Z,4.33
2018-07-11T23:00:31.062Z,4.00
2018-07-11T23:02:58.243Z,4.27
2018-07-11T23:05:25.436Z,4.40
2018-07-11T23:07:52.619Z,3.47
2018-07-11T23:10:19.812Z,3.87
2018-07-11T23:12:46.996Z,4.10
2018-07-11T23:15:14.189Z,4.60
2018-07-11T23:17:41.368Z,5.10
2018-07-11T23:20:08.562Z,5.00
2018-07-11T23:22:35.741Z,4.70
2018-07-11T23:25:02.926Z,4.90
2018-07-11T23:27:30.108Z,4.70
2018-07-11T23:29:57.293Z,4.20
2018-07-11T23:32:24.485Z,4.30
2018-07-11T23:34:51.665Z,4.57
2018-07-11T23:37:18.883Z,4.80
2018-07-11T23:39:46.068Z,4.20
2018-07-11T23:42:13.263Z,4.07
2018-07-11T23:44:40.441Z,4.67
2018-07-11T23:47:07.622Z,4.67
2018-07-11T23:49:34.799Z,4.30
2018-07-11T23:52:01.990Z,5.20
2018-07-11T23:54:29.183Z,4.70
2018-07-11T23:56:56.369Z,4.37
2018-07-11T23:59:23.560Z,5.37
